createdAt,value
2022-12-13T00:02:18.512Z,6.40
2022-12-13T00:05:47.496Z,6.70
2022-12-13T00:09:16.362Z,7.30
2022-12-13T00:12:43.353Z,7.20
2022-12-13T00:16:13.436Z,6.90
2022-12-13T00:19:40.995Z,7.10
2022-12-13T00:23:07.803Z,6.60
2022-12-13T00:26:35.431Z,6.40
2022-12-13T00:30:02.574Z,5.20
2022-12-13T00:33:30.171Z,5.00
2022-12-13T00:37:00.273Z,5.40
2022-12-13T00:40:29.671Z,6.20
2022-12-13T00:43:56.428Z,6.60
2022-12-13T00:47:23.738Z,6.70
2022-12-13T00:51:01.200Z,6.50
2022-12-13T00:54:31.461Z,6.50
2022-12-13T00:58:20.089Z,6.70
2022-12-13T01:01:53.825Z,6.30
2022-12-13T01:05:47.267Z,6.10
2022-12-13T01:09:11.628Z,5.60
2022-12-13T01:12:38.356Z,6.50
2022-12-13T01:16:07.827Z,7.30
2022-12-13T01:19:35.353Z,6.60
2022-12-13T01:23:02.314Z,6.00
2022-12-13T01:26:29.554Z,6.60
2022-12-13T01:29:56.760Z,6.20
2022-12-13T01:38:32.107Z,5.80
2022-12-13T01:45:32.505Z,5.60
2022-12-13T01:49:05.071Z,5.80
2022-12-13T01:52:34.962Z,5.60
2022-12-13T01:56:07.537Z,5.90
2022-12-13T01:59:34.387Z,6.10
2022-12-13T02:03:02.707Z,5.60
2022-12-13T02:06:34.630Z,5.90
2022-12-13T02:10:05.389Z,6.20
2022-12-13T02:13:35.961Z,5.90
2022-12-13T02:17:15.012Z,5.90
2022-12-13T02:21:13.705Z,5.30
2022-12-13T02:25:13.157Z,5.40
2022-12-13T02:29:06.576Z,5.20
2022-12-13T02:32:44.043Z,5.30
2022-12-13T02:36:15.868Z,5.50
2022-12-13T02:39:48.764Z,5.30
2022-12-13T02:43:22.163Z,5.90
2022-12-13T02:46:56.845Z,5.40
2022-12-13T02:50:26.290Z,5.40
2022-12-13T02:53:52.928Z,5.00
2022-12-13T02:57:35.687Z,5.40
2022-12-13T03:01:27.970Z,5.80
2022-12-13T03:05:21.841Z,4.80
2022-12-13T03:08:58.762Z,6.00
2022-12-13T03:12:56.122Z,6.00
2022-12-13T03:16:29.514Z,6.50
2022-12-13T03:19:56.387Z,7.40
2022-12-13T03:23:24.793Z,8.20
2022-12-13T03:26:53.559Z,7.90
2022-12-13T03:30:24.209Z,8.70
2022-12-13T03:33:52.156Z,9.90
2022-12-13T03:37:18.930Z,10.90
2022-12-13T03:40:47.510Z,12.80
2022-12-13T03:44:14.301Z,16.20
2022-12-13T03:47:40.948Z,15.00
2022-12-13T03:51:11.460Z,16.10
2022-12-13T03:54:38.923Z,15.20
2022-12-13T03:58:12.047Z,14.50
2022-12-13T04:01:39.560Z,13.70
2022-12-13T04:05:07.762Z,13.60
2022-12-13T04:08:35.436Z,13.30
2022-12-13T04:12:19.771Z,12.60
2022-12-13T04:15:50.934Z,11.40
2022-12-13T04:19:22.675Z,11.30
2022-12-13T04:22:50.406Z,11.10
2022-12-13T04:26:17.358Z,11.90
2022-12-13T04:29:44.110Z,12.10
2022-12-13T04:33:10.839Z,12.90
2022-12-13T04:36:37.395Z,12.50
2022-12-13T04:40:04.845Z,12.40
2022-12-13T04:43:31.696Z,11.60
2022-12-13T04:47:00.846Z,10.30
2022-12-13T04:50:28.463Z,10.90
2022-12-13T04:53:55.690Z,9.70
2022-12-13T04:57:40.581Z,10.00
2022-12-13T05:01:10.047Z,9.30
2022-12-13T05:04:36.950Z,10.10
2022-12-13T05:08:03.927Z,10.00
2022-12-13T05:11:35.783Z,9.50
2022-12-13T05:15:02.982Z,8.70
2022-12-13T05:18:31.208Z,8.80
2022-12-13T05:21:57.541Z,8.10
2022-12-13T05:25:28.809Z,8.60
2022-12-13T05:28:56.533Z,8.40
2022-12-13T05:32:23.298Z,8.50
2022-12-13T05:35:53.879Z,8.60
2022-12-13T05:39:27.851Z,8.60
2022-12-13T05:43:00.768Z,10.00
2022-12-13T05:46:29.033Z,10.40
2022-12-13T05:49:55.583Z,9.70
2022-12-13T05:53:30.320Z,10.00
2022-12-13T05:56:58.220Z,11.20
2022-12-13T06:00:30.141Z,11.50
2022-12-13T06:03:57.132Z,12.00
2022-12-13T06:07:24.619Z,11.70
2022-12-13T06:11:10.613Z,12.60
2022-12-13T06:14:39.265Z,12.10
2022-12-13T06:18:05.665Z,11.70
2022-12-13T06:21:43.579Z,12.80
2022-12-13T06:25:31.542Z,12.50
2022-12-13T06:28:59.472Z,12.40
2022-12-13T06:32:25.788Z,10.40
2022-12-13T06:35:52.930Z,10.90
2022-12-13T06:39:21.423Z,10.00
2022-12-13T06:42:48.331Z,10.80
2022-12-13T06:46:15.115Z,10.60
2022-12-13T06:49:44.957Z,10.50
2022-12-13T06:53:11.816Z,11.90
2022-12-13T06:56:38.841Z,12.70
2022-12-13T07:00:06.983Z,13.40
2022-12-13T07:03:33.527Z,16.00
2022-12-13T07:07:02.875Z,13.00
2022-12-13T07:10:29.505Z,11.80
2022-12-13T07:13:57.082Z,17.70
2022-12-13T07:17:32.367Z,15.20
2022-12-13T07:21:00.770Z,14.30
2022-12-13T07:24:28.879Z,12.10
2022-12-13T07:28:02.675Z,12.30
2022-12-13T07:31:29.905Z,12.00
2022-12-13T07:34:56.927Z,12.00
2022-12-13T07:38:23.594Z,12.40
2022-12-13T07:41:54.486Z,11.30
2022-12-13T07:45:21.879Z,11.60
2022-12-13T07:48:48.601Z,10.80
2022-12-13T07:52:15.493Z,10.50
2022-12-13T07:55:43.506Z,10.90
2022-12-13T07:59:12.435Z,10.90
2022-12-13T08:02:40.401Z,11.80
2022-12-13T08:06:09.676Z,11.60
2022-12-13T08:09:36.235Z,11.10
2022-12-13T08:13:06.681Z,11.30
2022-12-13T08:16:33.868Z,11.10
2022-12-13T08:20:00.537Z,11.70
2022-12-13T08:23:27.751Z,10.70
2022-12-13T08:26:54.571Z,11.30
2022-12-13T08:30:22.054Z,12.20
2022-12-13T08:33:50.654Z,11.80
2022-12-13T08:37:17.602Z,11.50
2022-12-13T08:40:45.058Z,10.30
2022-12-13T08:44:12.782Z,11.70
2022-12-13T08:47:42.116Z,10.60
2022-12-13T08:51:11.964Z,10.00
2022-12-13T08:54:46.547Z,9.50
2022-12-13T08:58:14.472Z,10.10
2022-12-13T09:01:41.015Z,10.10
2022-12-13T09:05:09.351Z,8.80
2022-12-13T09:08:36.182Z,9.90
2022-12-13T09:12:03.661Z,9.90
2022-12-13T09:15:45.828Z,9.10
2022-12-13T09:19:25.038Z,11.10
2022-12-13T09:23:01.400Z,9.80
2022-12-13T09:26:29.446Z,9.60
2022-12-13T09:30:06.999Z,9.70
2022-12-13T09:33:41.497Z,10.40
2022-12-13T09:37:12.718Z,9.50
2022-12-13T09:40:41.475Z,9.80
2022-12-13T09:44:32.422Z,9.80
2022-12-13T09:48:04.844Z,11.70
2022-12-13T09:51:55.323Z,10.70
2022-12-13T09:59:00.422Z,9.10
2022-12-13T10:02:30.295Z,13.20
2022-12-13T10:06:01.077Z,9.30
2022-12-13T10:09:28.868Z,10.30
2022-12-13T10:13:02.917Z,11.00
2022-12-13T10:16:36.513Z,12.60
2022-12-13T10:20:04.994Z,10.90
2022-12-13T10:23:59.379Z,9.60
2022-12-13T10:27:28.110Z,8.90
2022-12-13T10:30:57.164Z,11.90
2022-12-13T10:34:39.166Z,9.10
2022-12-13T10:38:31.978Z,11.10
2022-12-13T10:42:06.101Z,9.40
2022-12-13T10:45:32.745Z,10.10
2022-12-13T10:49:00.422Z,10.00
2022-12-13T10:52:34.991Z,9.50
2022-12-13T10:56:11.206Z,9.70
2022-12-13T10:59:39.845Z,8.80
2022-12-13T11:03:07.373Z,8.60
2022-12-13T11:06:46.046Z,8.90
2022-12-13T11:10:27.098Z,8.30
2022-12-13T11:14:01.559Z,10.00
2022-12-13T11:17:31.309Z,9.00
2022-12-13T11:21:01.136Z,9.40
2022-12-13T11:24:34.431Z,8.50
2022-12-13T11:28:26.270Z,7.80
2022-12-13T11:32:03.954Z,7.70
2022-12-13T11:35:37.706Z,7.30
2022-12-13T11:39:18.394Z,8.40
2022-12-13T11:42:49.862Z,8.00
2022-12-13T11:46:28.867Z,7.10
2022-12-13T11:49:58.849Z,6.60
2022-12-13T11:53:32.544Z,6.80
2022-12-13T11:57:05.300Z,6.80
2022-12-13T12:00:36.059Z,8.00
2022-12-13T12:04:18.025Z,7.90
2022-12-13T12:08:30.965Z,7.80
2022-12-13T12:11:45.721Z,7.60
2022-12-13T12:15:26.621Z,8.90
2022-12-13T12:18:54.605Z,7.40
2022-12-13T12:22:40.143Z,7.20
2022-12-13T12:26:11.429Z,20.50
2022-12-13T12:30:03.073Z,32.50
2022-12-13T12:33:41.070Z,15.00
2022-12-13T12:37:18.834Z,7.40
2022-12-13T12:41:18.607Z,7.80
2022-12-13T12:44:59.186Z,7.80
2022-12-13T12:48:53.715Z,7.90
2022-12-13T12:52:39.274Z,8.90
2022-12-13T12:56:36.509Z,7.80
2022-12-13T13:00:16.148Z,8.00
2022-12-13T13:03:45.284Z,8.30
2022-12-13T13:07:23.080Z,8.20
2022-12-13T13:10:51.723Z,7.30
2022-12-13T13:14:35.014Z,8.20
2022-12-13T13:18:02.534Z,7.50
2022-12-13T13:21:44.861Z,9.20
2022-12-13T13:25:35.157Z,8.30
2022-12-13T13:29:43.106Z,7.70
2022-12-13T13:33:46.686Z,17.60
2022-12-13T13:37:30.581Z,27.30
2022-12-13T13:40:57.583Z,13.40
2022-12-13T13:44:57.018Z,21.70
2022-12-13T13:48:43.117Z,11.80
2022-12-13T13:52:25.585Z,9.80
2022-12-13T13:56:02.193Z,27.90
2022-12-13T14:00:24.215Z,15.70
2022-12-13T14:04:37.960Z,22.60
2022-12-13T14:12:20.209Z,16.70
2022-12-13T14:16:22.325Z,10.20
2022-12-13T14:20:22.909Z,8.50
2022-12-13T14:24:00.688Z,10.00
2022-12-13T14:27:41.390Z,9.70
2022-12-13T14:31:22.116Z,10.20
2022-12-13T14:34:49.161Z,10.60
2022-12-13T14:38:25.160Z,11.50
2022-12-13T14:41:56.615Z,12.20
2022-12-13T14:45:32.041Z,12.90
2022-12-13T14:49:01.622Z,11.60
2022-12-13T14:52:34.535Z,12.30
2022-12-13T14:56:28.783Z,12.50
2022-12-13T14:59:58.552Z,10.90
2022-12-13T15:03:28.954Z,13.40
2022-12-13T15:07:06.680Z,12.20
2022-12-13T15:10:48.581Z,11.90
2022-12-13T15:14:20.045Z,13.90
2022-12-13T15:17:46.444Z,15.10
2022-12-13T15:21:28.056Z,13.20
2022-12-13T15:25:01.542Z,14.60
2022-12-13T15:28:37.210Z,15.30
2022-12-13T15:32:12.382Z,18.10
2022-12-13T15:35:40.318Z,21.70
2022-12-13T15:39:07.464Z,17.30
2022-12-13T15:42:37.348Z,17.40
2022-12-13T15:46:07.850Z,16.90
2022-12-13T15:49:37.703Z,15.40
2022-12-13T15:53:07.544Z,14.70
2022-12-13T15:56:37.600Z,16.30
2022-12-13T16:00:30.953Z,18.80
2022-12-13T16:03:59.154Z,18.00
2022-12-13T16:07:29.993Z,17.10
2022-12-13T16:10:58.509Z,17.20
2022-12-13T16:14:49.255Z,19.40
2022-12-13T16:18:26.610Z,18.40
2022-12-13T16:21:55.697Z,20.40
2022-12-13T16:25:23.339Z,22.80
2022-12-13T16:29:03.376Z,20.80
2022-12-13T16:32:36.208Z,20.50
2022-12-13T16:36:17.194Z,19.40
2022-12-13T16:39:44.243Z,15.80
2022-12-13T16:43:18.527Z,13.70
2022-12-13T16:47:11.961Z,13.70
2022-12-13T16:50:33.078Z,16.20
2022-12-13T16:54:00.491Z,13.80
2022-12-13T16:57:27.550Z,13.50
2022-12-13T17:00:59.884Z,14.40
2022-12-13T17:04:29.089Z,14.50
2022-12-13T17:07:57.682Z,14.00
2022-12-13T17:11:24.883Z,15.00
2022-12-13T17:14:52.938Z,13.20
2022-12-13T17:18:20.939Z,14.60
2022-12-13T17:21:49.756Z,15.50
2022-12-13T17:25:18.266Z,20.10
2022-12-13T17:28:49.823Z,21.30
2022-12-13T17:32:22.386Z,19.30
2022-12-13T17:35:52.787Z,18.10
2022-12-13T17:39:21.680Z,16.60
2022-12-13T17:42:56.678Z,20.00
2022-12-13T17:46:23.948Z,17.80
2022-12-13T17:49:53.199Z,15.60
2022-12-13T17:53:28.064Z,15.80
2022-12-13T17:57:05.625Z,15.90
2022-12-13T18:00:35.969Z,16.20
2022-12-13T18:04:05.938Z,14.50
2022-12-13T18:07:38.783Z,16.70
2022-12-13T18:14:57.359Z,17.60
2022-12-13T18:18:27.234Z,15.90
2022-12-13T18:21:57.035Z,13.90
2022-12-13T18:25:24.753Z,13.50
2022-12-13T18:28:53.350Z,13.50
2022-12-13T18:32:23.821Z,13.50
2022-12-13T18:35:52.973Z,17.70
2022-12-13T18:39:26.300Z,19.00
2022-12-13T18:42:53.746Z,20.40
2022-12-13T18:46:24.292Z,25.10
2022-12-13T18:49:57.480Z,51.80
2022-12-13T18:53:28.317Z,35.00
2022-12-13T18:56:58.349Z,25.50
2022-12-13T19:00:27.188Z,25.40
2022-12-13T19:03:59.611Z,21.10
2022-12-13T19:07:27.217Z,20.50
2022-12-13T19:10:54.816Z,22.10
2022-12-13T19:14:26.888Z,30.00
2022-12-13T19:17:54.423Z,34.80
2022-12-13T19:21:32.705Z,28.90
2022-12-13T19:25:01.483Z,30.10
2022-12-13T19:28:32.920Z,26.50
2022-12-13T19:32:02.645Z,26.70
2022-12-13T19:35:34.334Z,19.50
2022-12-13T19:39:05.971Z,16.80
2022-12-13T19:42:35.978Z,20.90
2022-12-13T19:46:08.531Z,19.80
2022-12-13T19:49:37.329Z,18.60
2022-12-13T19:53:07.577Z,22.30
2022-12-13T19:56:35.113Z,25.60
2022-12-13T20:00:02.878Z,29.10
2022-12-13T20:03:36.454Z,27.90
2022-12-13T20:07:03.818Z,33.60
2022-12-13T20:10:31.098Z,34.10
2022-12-13T20:13:59.260Z,42.20
2022-12-13T20:17:30.297Z,45.70
2022-12-13T20:21:13.184Z,41.90
2022-12-13T20:24:44.647Z,33.10
2022-12-13T20:28:16.321Z,34.70
2022-12-13T20:31:48.659Z,37.60
2022-12-13T20:35:16.400Z,35.00
2022-12-13T20:38:43.877Z,35.10
2022-12-13T20:42:11.565Z,31.40
2022-12-13T20:45:40.167Z,34.70
2022-12-13T20:49:10.404Z,39.50
2022-12-13T20:52:37.402Z,47.70
2022-12-13T20:56:05.491Z,48.70
2022-12-13T20:59:35.216Z,48.40
2022-12-13T21:03:06.802Z,52.80
2022-12-13T21:06:42.973Z,57.10
2022-12-13T21:10:11.739Z,60.40
2022-12-13T21:13:38.599Z,58.80
2022-12-13T21:17:09.931Z,67.30
2022-12-13T21:20:37.666Z,61.70
2022-12-13T21:24:11.218Z,59.10
2022-12-13T21:27:44.501Z,60.60
2022-12-13T21:31:23.468Z,63.40
2022-12-13T21:34:49.974Z,66.20
2022-12-13T21:38:18.720Z,66.40
2022-12-13T21:41:48.550Z,64.50
2022-12-13T21:45:16.323Z,67.80
2022-12-13T21:48:46.864Z,68.60
2022-12-13T21:52:16.926Z,63.20
2022-12-13T21:55:48.152Z,59.40
2022-12-13T21:59:18.227Z,57.20
2022-12-13T22:02:44.768Z,58.40
2022-12-13T22:06:11.700Z,56.10
2022-12-13T22:09:40.497Z,59.00
2022-12-13T22:13:07.066Z,54.90
2022-12-13T22:16:34.024Z,53.00
2022-12-13T22:20:26.156Z,59.40
2022-12-13T22:24:52.921Z,59.20
2022-12-13T22:28:36.433Z,49.60
2022-12-13T22:32:03.282Z,46.30
2022-12-13T22:35:30.540Z,38.20
2022-12-13T22:38:57.279Z,37.50
2022-12-13T22:42:23.865Z,36.90
2022-12-13T22:45:50.928Z,35.00
2022-12-13T22:49:17.595Z,37.40
2022-12-13T22:52:43.933Z,36.10
2022-12-13T22:56:17.692Z,41.70
2022-12-13T22:59:45.015Z,39.50
2022-12-13T23:03:33.275Z,47.10
2022-12-13T23:07:03.715Z,56.80
2022-12-13T23:10:50.512Z,54.50
2022-12-13T23:14:21.537Z,51.60
2022-12-13T23:17:49.785Z,45.60
2022-12-13T23:21:17.549Z,49.90
2022-12-13T23:24:46.989Z,48.00
2022-12-13T23:28:14.071Z,47.00
2022-12-13T23:31:43.071Z,45.60
2022-12-13T23:35:18.136Z,45.50
2022-12-13T23:38:45.805Z,44.60
2022-12-13T23:42:12.949Z,42.80
2022-12-13T23:45:40.834Z,40.10
2022-12-13T23:49:09.531Z,39.50
2022-12-13T23:52:38.302Z,35.90
2022-12-13T23:56:05.874Z,34.10
2022-12-13T23:59:33.289Z,31.90
